createdAt,value
2023-02-27T00:00:31.475Z,18.10
2023-02-27T00:02:59.446Z,16.05
2023-02-27T00:05:27.098Z,15.27
2023-02-27T00:07:54.736Z,16.35
2023-02-27T00:10:22.414Z,18.40
2023-02-27T00:12:49.982Z,14.50
2023-02-27T00:15:20.075Z,19.65
2023-02-27T00:17:47.773Z,11.88
2023-02-27T00:20:17.283Z,15.68
2023-02-27T00:22:45.982Z,13.98
2023-02-27T00:25:14.245Z,12.38
2023-02-27T00:27:42.403Z,14.65
2023-02-27T00:30:13.001Z,14.50
2023-02-27T00:32:40.888Z,13.18
2023-02-27T00:35:11.163Z,16.50
2023-02-27T00:37:39.742Z,13.35
2023-02-27T00:40:08.068Z,16.25
2023-02-27T00:42:35.933Z,15.43
2023-02-27T00:45:05.015Z,13.77
2023-02-27T00:47:34.120Z,14.73
2023-02-27T00:50:02.098Z,12.05
2023-02-27T00:52:30.061Z,14.32
2023-02-27T00:55:00.116Z,14.40
2023-02-27T00:57:28.733Z,15.85
2023-02-27T00:59:56.676Z,12.23
2023-02-27T01:02:24.375Z,13.00
2023-02-27T01:04:52.061Z,16.30
2023-02-27T01:07:19.764Z,12.52
2023-02-27T01:09:47.436Z,12.00
2023-02-27T01:12:15.448Z,12.55
2023-02-27T01:14:45.117Z,13.45
2023-02-27T01:17:13.997Z,11.75
2023-02-27T01:19:41.657Z,17.75
2023-02-27T01:22:09.228Z,15.95
2023-02-27T01:24:36.758Z,11.52
2023-02-27T01:27:04.462Z,16.45
2023-02-27T01:29:32.105Z,16.27
2023-02-27T01:31:59.909Z,16.80
2023-02-27T01:34:27.644Z,13.82
2023-02-27T01:36:55.736Z,15.73
2023-02-27T01:39:23.561Z,17.10
2023-02-27T01:41:51.083Z,14.43
2023-02-27T01:44:19.127Z,15.68
2023-02-27T01:46:47.135Z,13.77
2023-02-27T01:49:16.885Z,12.75
2023-02-27T01:51:50.497Z,15.23
2023-02-27T01:54:22.578Z,13.15
2023-02-27T01:56:50.961Z,15.95
2023-02-27T01:59:19.578Z,13.90
2023-02-27T02:01:51.722Z,11.35
2023-02-27T02:04:28.336Z,11.80
2023-02-27T02:07:06.161Z,12.48
2023-02-27T02:09:39.698Z,11.50
2023-02-27T02:12:08.251Z,10.07
2023-02-27T02:14:35.993Z,13.40
2023-02-27T02:17:26.360Z,10.30
2023-02-27T02:19:59.741Z,10.40
2023-02-27T02:22:51.230Z,13.10
2023-02-27T02:25:57.164Z,9.43
2023-02-27T02:28:43.624Z,14.02
2023-02-27T02:31:47.665Z,8.70
2023-02-27T02:34:53.072Z,12.70
2023-02-27T02:38:12.970Z,13.05
2023-02-27T02:41:05.727Z,9.23
2023-02-27T02:43:39.013Z,13.25
2023-02-27T02:46:18.719Z,11.38
2023-02-27T02:49:09.681Z,11.77
2023-02-27T02:51:46.976Z,9.90
2023-02-27T02:54:21.913Z,10.18
2023-02-27T02:57:06.687Z,12.77
2023-02-27T02:59:57.960Z,9.70
2023-02-27T03:02:34.309Z,13.93
2023-02-27T03:05:08.843Z,10.30
2023-02-27T03:07:47.804Z,10.38
2023-02-27T03:10:26.980Z,12.98
2023-02-27T03:13:12.265Z,11.52
2023-02-27T03:15:49.706Z,11.05
2023-02-27T03:18:24.535Z,13.45
2023-02-27T03:20:58.232Z,10.40
2023-02-27T03:23:34.814Z,11.82
2023-02-27T03:26:04.102Z,11.65
2023-02-27T03:28:37.701Z,10.10
2023-02-27T03:31:13.552Z,10.55
2023-02-27T03:33:51.762Z,10.80
2023-02-27T03:36:32.359Z,12.05
2023-02-27T03:39:22.278Z,11.68
2023-02-27T03:42:11.580Z,8.43
2023-02-27T03:45:29.284Z,10.38
2023-02-27T03:47:57.855Z,10.80
2023-02-27T03:50:25.896Z,9.77
2023-02-27T03:52:53.804Z,12.43
2023-02-27T03:55:26.565Z,11.52
2023-02-27T03:57:54.743Z,10.90
2023-02-27T04:00:24.959Z,10.23
2023-02-27T04:02:56.108Z,9.00
2023-02-27T04:05:28.781Z,12.13
2023-02-27T04:08:19.192Z,11.13
2023-02-27T04:11:31.983Z,12.88
2023-02-27T04:14:40.715Z,14.00
2023-02-27T04:17:23.129Z,9.85
2023-02-27T04:19:58.468Z,11.20
2023-02-27T04:22:33.928Z,9.77
2023-02-27T04:25:10.555Z,9.57
2023-02-27T04:27:52.867Z,11.15
2023-02-27T04:30:35.427Z,11.43
2023-02-27T04:33:15.468Z,10.23
2023-02-27T04:36:07.089Z,10.75
2023-02-27T04:38:49.296Z,12.85
2023-02-27T04:41:22.477Z,12.43
2023-02-27T04:43:51.926Z,12.93
2023-02-27T04:46:23.688Z,12.25
2023-02-27T04:49:15.205Z,11.73
2023-02-27T04:52:11.688Z,11.32
2023-02-27T04:54:54.178Z,10.85
2023-02-27T04:57:31.975Z,10.90
2023-02-27T05:00:05.408Z,11.77
2023-02-27T05:02:38.147Z,13.45
2023-02-27T05:05:19.916Z,14.65
2023-02-27T05:08:02.028Z,16.40
2023-02-27T05:10:40.838Z,14.82
2023-02-27T05:13:26.865Z,11.43
2023-02-27T05:16:21.395Z,12.30
2023-02-27T05:18:50.261Z,13.55
2023-02-27T05:21:36.403Z,14.15
2023-02-27T05:24:26.393Z,15.55
2023-02-27T05:27:21.512Z,13.23
2023-02-27T05:29:54.392Z,13.70
2023-02-27T05:32:36.492Z,12.02
2023-02-27T05:35:07.215Z,11.93
2023-02-27T05:37:58.936Z,10.20
2023-02-27T05:40:33.197Z,20.23
2023-02-27T05:43:04.723Z,12.07
2023-02-27T05:45:36.909Z,12.75
2023-02-27T05:48:22.230Z,13.50
2023-02-27T05:50:52.459Z,10.13
2023-02-27T05:53:22.184Z,11.35
2023-02-27T05:55:59.275Z,11.32
2023-02-27T05:58:32.642Z,10.70
2023-02-27T06:01:02.850Z,15.25
2023-02-27T06:03:33.331Z,13.43
2023-02-27T06:06:06.491Z,9.50
2023-02-27T06:08:34.712Z,11.40
2023-02-27T06:11:02.942Z,11.38
2023-02-27T06:13:30.574Z,12.07
2023-02-27T06:15:58.185Z,11.23
2023-02-27T06:18:25.872Z,10.70
2023-02-27T06:20:54.905Z,8.32
2023-02-27T06:23:22.739Z,10.55
2023-02-27T06:25:50.530Z,10.65
2023-02-27T06:28:18.104Z,10.27
2023-02-27T06:30:46.520Z,13.38
2023-02-27T06:33:14.301Z,13.43
2023-02-27T06:35:41.910Z,10.85
2023-02-27T06:38:09.501Z,9.82
2023-02-27T06:40:38.451Z,12.32
2023-02-27T06:43:06.202Z,10.93
2023-02-27T06:45:33.809Z,15.77
2023-02-27T06:48:01.445Z,9.60
2023-02-27T06:50:28.994Z,10.93
2023-02-27T06:52:56.640Z,12.85
2023-02-27T06:55:25.706Z,10.90
2023-02-27T06:57:53.376Z,13.10
2023-02-27T07:00:21.447Z,12.55
2023-02-27T07:02:49.299Z,11.32
2023-02-27T07:05:18.113Z,16.42
2023-02-27T07:07:45.902Z,12.80
2023-02-27T07:10:14.503Z,10.63
2023-02-27T07:12:42.363Z,12.50
2023-02-27T07:15:10.403Z,11.60
2023-02-27T07:17:38.320Z,13.60
2023-02-27T07:20:08.331Z,14.95
2023-02-27T07:22:36.550Z,13.10
2023-02-27T07:25:04.957Z,15.38
2023-02-27T07:27:32.726Z,12.70
2023-02-27T07:30:01.142Z,12.35
2023-02-27T07:32:28.958Z,15.05
2023-02-27T07:34:56.542Z,12.05
2023-02-27T07:37:25.916Z,12.73
2023-02-27T07:39:54.652Z,11.73
2023-02-27T07:42:22.213Z,12.32
2023-02-27T07:44:50.017Z,9.50
2023-02-27T07:47:20.457Z,11.15
2023-02-27T07:49:48.124Z,10.57
2023-02-27T07:52:15.787Z,11.43
2023-02-27T07:54:43.467Z,12.18
2023-02-27T07:57:11.276Z,12.52
2023-02-27T07:59:38.859Z,11.15
2023-02-27T08:02:07.527Z,12.35
2023-02-27T08:04:35.133Z,15.07
2023-02-27T08:07:03.224Z,9.27
2023-02-27T08:09:31.260Z,10.75
2023-02-27T08:11:59.080Z,11.80
2023-02-27T08:14:27.028Z,13.02
2023-02-27T08:16:54.452Z,10.18
2023-02-27T08:19:22.064Z,10.15
2023-02-27T08:21:49.843Z,13.88
2023-02-27T08:24:17.931Z,10.27
2023-02-27T08:26:45.459Z,10.68
2023-02-27T08:29:14.612Z,13.95
2023-02-27T08:31:44.249Z,8.13
2023-02-27T08:34:11.729Z,6.72
2023-02-27T08:36:40.084Z,6.82
2023-02-27T08:39:09.100Z,8.55
2023-02-27T08:41:42.326Z,7.43
2023-02-27T08:44:14.061Z,5.97
2023-02-27T08:46:41.797Z,6.78
2023-02-27T08:49:09.302Z,10.32
2023-02-27T08:51:37.281Z,9.02
2023-02-27T08:54:04.728Z,5.18
2023-02-27T08:56:34.537Z,8.98
2023-02-27T08:59:02.750Z,8.63
2023-02-27T09:01:34.454Z,7.35
2023-02-27T09:04:04.054Z,6.28
2023-02-27T09:06:33.102Z,7.45
2023-02-27T09:09:01.259Z,9.68
2023-02-27T09:11:29.259Z,9.23
2023-02-27T09:13:57.546Z,11.88
2023-02-27T09:16:25.833Z,11.23
2023-02-27T09:18:54.121Z,15.10
2023-02-27T09:21:23.645Z,9.60
2023-02-27T09:23:52.233Z,6.80
2023-02-27T09:26:19.870Z,7.47
2023-02-27T09:28:47.537Z,5.90
2023-02-27T09:31:16.509Z,7.32
2023-02-27T09:33:44.608Z,7.57
2023-02-27T09:36:12.652Z,9.52
2023-02-27T09:38:41.532Z,10.52
2023-02-27T09:41:42.166Z,9.85
2023-02-27T09:44:46.036Z,9.20
2023-02-27T09:47:42.204Z,9.32
2023-02-27T09:50:34.795Z,10.02
2023-02-27T09:53:02.675Z,9.52
2023-02-27T09:55:33.843Z,12.45
2023-02-27T09:58:14.436Z,9.80
2023-02-27T10:00:57.020Z,7.47
2023-02-27T10:03:53.756Z,5.93
2023-02-27T10:06:39.460Z,5.57
2023-02-27T10:09:13.490Z,9.73
2023-02-27T10:12:07.036Z,6.88
2023-02-27T10:14:49.465Z,5.68
2023-02-27T10:17:31.793Z,11.00
2023-02-27T10:20:02.888Z,7.72
2023-02-27T10:22:36.509Z,7.45
2023-02-27T10:25:28.418Z,14.73
2023-02-27T10:28:08.966Z,4.38
2023-02-27T10:30:36.815Z,7.40
2023-02-27T10:33:22.218Z,3.13
2023-02-27T10:35:53.703Z,4.68
2023-02-27T10:38:34.844Z,4.88
2023-02-27T10:41:03.970Z,8.27
2023-02-27T10:43:32.055Z,4.05
2023-02-27T10:46:07.003Z,5.10
2023-02-27T10:48:35.280Z,9.38
2023-02-27T10:51:26.982Z,4.55
2023-02-27T10:54:21.237Z,4.95
2023-02-27T10:56:52.452Z,4.32
2023-02-27T10:59:27.618Z,4.40
2023-02-27T11:02:18.045Z,4.25
2023-02-27T11:04:58.855Z,3.75
2023-02-27T11:07:30.433Z,5.97
2023-02-27T11:13:06.868Z,4.40
2023-02-27T11:15:37.336Z,8.82
2023-02-27T11:18:40.658Z,4.53
2023-02-27T11:21:15.915Z,5.20
2023-02-27T11:24:07.671Z,6.28
2023-02-27T11:26:37.336Z,5.90
2023-02-27T11:29:15.830Z,6.90
2023-02-27T11:31:51.084Z,7.35
2023-02-27T11:34:21.042Z,5.90
2023-02-27T11:36:50.453Z,3.85
2023-02-27T11:39:25.876Z,5.60
2023-02-27T11:41:55.382Z,6.32
2023-02-27T11:44:49.705Z,5.60
2023-02-27T11:47:23.126Z,8.10
2023-02-27T11:50:08.947Z,7.63
2023-02-27T11:52:50.925Z,5.75
2023-02-27T11:55:22.112Z,4.95
2023-02-27T11:57:55.368Z,3.72
2023-02-27T12:00:39.756Z,5.40
2023-02-27T12:03:52.224Z,4.28
2023-02-27T12:06:25.157Z,5.05
2023-02-27T12:09:01.876Z,4.75
2023-02-27T12:11:35.939Z,6.47
2023-02-27T12:14:21.328Z,6.47
2023-02-27T12:16:55.325Z,7.72
2023-02-27T12:19:46.919Z,8.75
2023-02-27T12:22:26.832Z,7.53
2023-02-27T12:25:01.097Z,10.55
2023-02-27T12:28:01.469Z,8.55
2023-02-27T12:30:54.816Z,5.57
2023-02-27T12:33:49.826Z,6.13
2023-02-27T12:36:17.870Z,8.02
2023-02-27T12:38:45.756Z,7.93
2023-02-27T12:41:44.007Z,8.82
2023-02-27T12:44:33.103Z,9.98
2023-02-27T12:47:06.232Z,10.18
2023-02-27T12:49:55.214Z,7.75
2023-02-27T12:52:23.252Z,14.13
2023-02-27T12:55:02.221Z,7.07
2023-02-27T12:57:49.637Z,8.27
2023-02-27T13:00:25.181Z,5.88
2023-02-27T13:03:25.700Z,6.43
2023-02-27T13:06:18.110Z,6.95
2023-02-27T13:08:55.217Z,7.22
2023-02-27T13:11:56.071Z,5.07
2023-02-27T13:15:01.823Z,4.55
2023-02-27T13:17:29.798Z,5.75
2023-02-27T13:20:07.300Z,6.68
2023-02-27T13:23:08.634Z,8.25
2023-02-27T13:25:38.757Z,7.05
2023-02-27T13:28:13.478Z,7.00
2023-02-27T13:31:04.485Z,8.20
2023-02-27T13:34:06.966Z,7.22
2023-02-27T13:37:03.480Z,6.45
2023-02-27T13:39:47.048Z,6.95
2023-02-27T13:42:28.146Z,6.43
2023-02-27T13:45:04.660Z,8.85
2023-02-27T13:47:49.866Z,9.95
2023-02-27T13:50:17.464Z,7.03
2023-02-27T13:52:46.977Z,7.88
2023-02-27T13:55:35.336Z,8.13
2023-02-27T13:58:04.969Z,6.97
2023-02-27T14:00:35.608Z,9.43
2023-02-27T14:03:17.518Z,8.17
2023-02-27T14:05:48.061Z,10.38
2023-02-27T14:08:21.117Z,10.38
2023-02-27T14:11:11.835Z,9.27
2023-02-27T14:14:08.113Z,11.52
2023-02-27T14:16:41.595Z,5.78
2023-02-27T14:19:15.134Z,5.18
2023-02-27T14:22:11.744Z,6.55
2023-02-27T14:25:01.665Z,10.55
2023-02-27T14:27:44.399Z,5.70
2023-02-27T14:30:30.019Z,7.47
2023-02-27T14:33:03.002Z,6.85
2023-02-27T14:35:31.683Z,8.20
2023-02-27T14:38:03.796Z,7.20
2023-02-27T14:40:36.973Z,7.05
2023-02-27T14:43:45.146Z,4.70
2023-02-27T14:46:34.399Z,7.60
2023-02-27T14:49:23.344Z,11.55
2023-02-27T14:51:51.455Z,34.75
2023-02-27T14:54:23.109Z,6.43
2023-02-27T14:59:50.015Z,7.95
2023-02-27T15:02:28.248Z,6.97
2023-02-27T15:05:01.999Z,11.68
2023-02-27T15:07:32.125Z,5.95
2023-02-27T15:10:04.314Z,5.97
2023-02-27T15:12:37.612Z,4.15
2023-02-27T15:15:10.145Z,4.97
2023-02-27T15:17:43.866Z,6.13
2023-02-27T15:20:30.227Z,4.55
2023-02-27T15:23:02.712Z,4.40
2023-02-27T15:25:38.603Z,6.22
2023-02-27T15:28:29.590Z,4.63
2023-02-27T15:30:57.885Z,5.65
2023-02-27T15:33:30.432Z,10.18
2023-02-27T15:35:59.376Z,5.78
2023-02-27T15:38:33.182Z,8.55
2023-02-27T15:41:03.306Z,9.77
2023-02-27T15:43:31.741Z,3.63
2023-02-27T15:46:00.169Z,6.25
2023-02-27T15:48:29.880Z,12.52
2023-02-27T15:50:59.507Z,6.57
2023-02-27T15:53:29.756Z,7.80
2023-02-27T15:56:00.664Z,6.63
2023-02-27T15:58:31.117Z,6.00
2023-02-27T16:01:08.866Z,8.60
2023-02-27T16:03:40.365Z,8.88
2023-02-27T16:06:23.427Z,7.43
2023-02-27T16:09:01.095Z,8.32
2023-02-27T16:11:34.481Z,4.72
2023-02-27T16:14:02.551Z,6.53
2023-02-27T16:16:37.551Z,8.05
2023-02-27T16:19:34.751Z,7.85
2023-02-27T16:22:03.653Z,10.32
2023-02-27T16:24:32.319Z,9.70
2023-02-27T16:27:00.717Z,10.27
2023-02-27T16:29:44.261Z,11.30
2023-02-27T16:32:31.024Z,9.35
2023-02-27T16:35:05.905Z,14.32
2023-02-27T16:37:41.791Z,6.63
2023-02-27T16:40:14.831Z,6.97
2023-02-27T16:42:43.426Z,7.95
2023-02-27T16:45:19.158Z,12.60
2023-02-27T16:47:52.385Z,10.15
2023-02-27T16:50:28.223Z,13.48
2023-02-27T16:52:57.242Z,10.68
2023-02-27T16:55:25.891Z,10.30
2023-02-27T16:57:54.438Z,10.50
2023-02-27T17:00:25.247Z,12.88
2023-02-27T17:02:53.216Z,10.80
2023-02-27T17:05:21.151Z,9.85
2023-02-27T17:07:48.918Z,12.90
2023-02-27T17:10:19.606Z,8.38
2023-02-27T17:12:48.035Z,12.03
2023-02-27T17:15:16.270Z,9.10
2023-02-27T17:17:44.632Z,12.85
2023-02-27T17:20:14.110Z,8.20
2023-02-27T17:22:44.820Z,6.03
2023-02-27T17:25:13.490Z,6.95
2023-02-27T17:27:43.609Z,9.38
2023-02-27T17:30:12.754Z,12.55
2023-02-27T17:32:40.449Z,8.90
2023-02-27T17:35:09.005Z,8.70
2023-02-27T17:37:36.756Z,7.38
2023-02-27T17:40:05.774Z,6.88
2023-02-27T17:42:36.573Z,8.27
2023-02-27T17:45:06.480Z,13.85
2023-02-27T17:47:34.786Z,14.27
2023-02-27T17:50:04.605Z,12.43
2023-02-27T17:52:32.390Z,11.38
2023-02-27T17:55:00.116Z,9.65
2023-02-27T17:57:27.693Z,9.80
2023-02-27T17:59:55.555Z,10.73
2023-02-27T18:02:23.417Z,11.70
2023-02-27T18:04:51.278Z,12.68
2023-02-27T18:07:19.343Z,13.88
2023-02-27T18:09:47.311Z,16.20
2023-02-27T18:12:14.812Z,10.82
2023-02-27T18:14:42.525Z,10.65
2023-02-27T18:17:13.100Z,9.85
2023-02-27T18:19:42.174Z,13.05
2023-02-27T18:22:10.368Z,7.82
2023-02-27T18:24:38.341Z,8.65
2023-02-27T18:27:05.923Z,10.68
2023-02-27T18:29:33.622Z,9.25
2023-02-27T18:32:01.243Z,10.80
2023-02-27T18:34:29.285Z,8.95
2023-02-27T18:36:58.238Z,9.43
2023-02-27T18:39:50.873Z,9.35
2023-02-27T18:42:18.473Z,8.75
2023-02-27T18:44:47.662Z,8.80
2023-02-27T18:47:15.647Z,8.40
2023-02-27T18:49:43.634Z,7.22
2023-02-27T18:52:11.158Z,8.88
2023-02-27T18:54:40.940Z,9.00
2023-02-27T18:57:09.403Z,7.57
2023-02-27T18:59:37.594Z,8.48
2023-02-27T19:02:05.898Z,7.93
2023-02-27T19:04:33.941Z,10.00
2023-02-27T19:07:02.051Z,10.18
2023-02-27T19:09:32.789Z,9.15
2023-02-27T19:12:00.819Z,7.93
2023-02-27T19:14:28.368Z,8.48
2023-02-27T19:16:56.971Z,10.20
2023-02-27T19:19:28.266Z,8.05
2023-02-27T19:21:56.281Z,8.70
2023-02-27T19:24:24.738Z,11.00
2023-02-27T19:26:55.060Z,10.23
2023-02-27T19:29:22.626Z,9.38
2023-02-27T19:31:50.356Z,10.00
2023-02-27T19:34:18.105Z,9.80
2023-02-27T19:36:45.636Z,10.13
2023-02-27T19:39:13.273Z,10.15
2023-02-27T19:41:41.877Z,13.27
2023-02-27T19:44:09.858Z,11.98
2023-02-27T19:46:37.897Z,13.73
2023-02-27T19:49:06.724Z,11.85
2023-02-27T19:51:34.700Z,13.30
2023-02-27T19:54:02.675Z,12.75
2023-02-27T19:56:30.828Z,14.05
2023-02-27T19:59:00.373Z,13.25
2023-02-27T20:01:33.596Z,13.30
2023-02-27T20:04:02.333Z,14.65
2023-02-27T20:06:33.137Z,11.98
2023-02-27T20:09:01.405Z,13.68
2023-02-27T20:11:30.765Z,15.82
2023-02-27T20:13:59.054Z,13.30
2023-02-27T20:16:30.001Z,15.98
2023-02-27T20:18:58.485Z,14.13
2023-02-27T20:21:28.787Z,15.15
2023-02-27T20:23:58.519Z,13.25
2023-02-27T20:26:30.730Z,15.38
2023-02-27T20:29:08.091Z,13.60
2023-02-27T20:31:38.053Z,16.00
2023-02-27T20:34:07.218Z,13.30
2023-02-27T20:36:35.937Z,15.82
2023-02-27T20:39:05.509Z,13.57
2023-02-27T20:41:34.698Z,14.63
2023-02-27T20:44:08.227Z,16.40
2023-02-27T20:46:36.601Z,15.25
2023-02-27T20:49:06.343Z,16.58
2023-02-27T20:51:36.714Z,14.18
2023-02-27T20:54:11.588Z,14.33
2023-02-27T20:56:41.426Z,13.00
2023-02-27T20:59:12.922Z,14.35
2023-02-27T21:01:41.887Z,15.05
2023-02-27T21:04:09.862Z,15.35
2023-02-27T21:06:37.607Z,14.25
2023-02-27T21:09:06.749Z,15.27
2023-02-27T21:11:35.017Z,15.13
2023-02-27T21:14:06.057Z,14.93
2023-02-27T21:16:33.853Z,14.57
2023-02-27T21:19:01.758Z,14.27
2023-02-27T21:21:31.998Z,16.63
2023-02-27T21:24:00.434Z,14.48
2023-02-27T21:26:37.969Z,15.95
2023-02-27T21:29:07.449Z,18.70
2023-02-27T21:31:37.336Z,16.15
2023-02-27T21:34:08.432Z,18.10
2023-02-27T21:36:42.565Z,17.00
2023-02-27T21:39:19.353Z,15.13
2023-02-27T21:41:47.813Z,15.60
2023-02-27T21:44:19.012Z,16.95
2023-02-27T21:46:47.394Z,17.67
2023-02-27T21:49:19.952Z,17.88
2023-02-27T21:51:48.144Z,21.00
2023-02-27T21:54:17.151Z,18.42
2023-02-27T21:56:46.542Z,16.55
2023-02-27T21:59:15.282Z,18.38
2023-02-27T22:01:47.421Z,17.50
2023-02-27T22:04:17.377Z,18.67
2023-02-27T22:06:45.913Z,15.98
2023-02-27T22:09:13.962Z,17.05
2023-02-27T22:11:41.532Z,17.63
2023-02-27T22:14:10.902Z,17.25
2023-02-27T22:16:38.975Z,27.33
2023-02-27T22:19:08.895Z,20.88
2023-02-27T22:21:38.050Z,19.50
2023-02-27T22:24:07.336Z,19.77
2023-02-27T22:26:35.415Z,21.75
2023-02-27T22:29:03.614Z,16.60
2023-02-27T22:31:37.676Z,14.27
2023-02-27T22:34:10.110Z,15.07
2023-02-27T22:36:38.314Z,14.88
2023-02-27T22:39:06.455Z,18.63
2023-02-27T22:41:36.883Z,18.30
2023-02-27T22:44:05.246Z,17.50
2023-02-27T22:46:33.276Z,16.60
2023-02-27T22:49:04.598Z,15.43
2023-02-27T22:51:32.664Z,16.35
2023-02-27T22:54:03.873Z,17.10
2023-02-27T22:56:32.326Z,15.48
2023-02-27T22:59:00.228Z,13.80
2023-02-27T23:01:30.651Z,12.48
2023-02-27T23:04:00.889Z,12.50
2023-02-27T23:06:34.101Z,15.88
2023-02-27T23:09:02.683Z,15.68
2023-02-27T23:11:31.143Z,13.45
2023-02-27T23:13:59.304Z,17.67
2023-02-27T23:16:27.205Z,13.90
2023-02-27T23:18:57.367Z,15.38
2023-02-27T23:21:30.010Z,14.60
2023-02-27T23:23:58.174Z,13.25
2023-02-27T23:26:28.447Z,13.57
2023-02-27T23:28:56.573Z,12.55
2023-02-27T23:31:24.771Z,12.05
2023-02-27T23:33:52.576Z,11.18
2023-02-27T23:36:20.446Z,13.52
2023-02-27T23:38:48.206Z,11.65
2023-02-27T23:41:20.791Z,12.70
2023-02-27T23:43:53.516Z,13.35
2023-02-27T23:46:21.543Z,18.00
2023-02-27T23:48:49.697Z,13.65
2023-02-27T23:51:17.396Z,11.02
2023-02-27T23:53:45.349Z,16.27
2023-02-27T23:56:25.096Z,13.00
2023-02-27T23:58:55.987Z,17.25
